Time;durP1;ratioP1;P1;durP2;ratioP2;P2;SDS_P1;SDS_P2;PMS_P1;PMS_P2;Temp;Humidity;BMP_temperature;BMP_pressure;BME280_temperature;BME280_humidity;BME280_pressure;Samples;Min_cycle;Max_cycle;Signal;HPM_P1;HPM_P2
2023/01/23 00:02:08;;;;;;;15.10;7.32;;;;;;;;;;4935998;29;20039;-67
2023/01/23 00:04:34;;;;;;;16.23;7.60;;;;;;;;;;4935187;29;20043;-67
2023/01/23 00:07:02;;;;;;;16.45;6.93;;;;;;;;;;4936161;29;20131;-67
2023/01/23 00:09:28;;;;;;;15.63;7.35;;;;;;;;;;4961572;28;20630;-67
2023/01/23 00:11:54;;;;;;;15.85;7.45;;;;;;;;;;4950788;29;20043;-67
2023/01/23 00:14:20;;;;;;;15.90;7.22;;;;;;;;;;4935692;29;20079;-67
2023/01/23 00:16:46;;;;;;;17.67;7.57;;;;;;;;;;4936030;29;20479;-67
2023/01/23 00:19:12;;;;;;;14.85;7.78;;;;;;;;;;4934834;29;20137;-67
2023/01/23 00:21:38;;;;;;;12.75;7.10;;;;;;;;;;4935496;29;20138;-67
2023/01/23 00:24:04;;;;;;;15.90;7.60;;;;;;;;;;4935581;29;20050;-67
2023/01/23 00:26:34;;;;;;;14.00;7.78;;;;;;;;;;4948407;28;20043;-67
2023/01/23 00:29:00;;;;;;;15.98;7.47;;;;;;;;;;4938479;28;20043;-67
2023/01/23 00:31:28;;;;;;;19.38;8.32;;;;;;;;;;4938601;28;20042;-67
2023/01/23 00:33:55;;;;;;;15.73;8.38;;;;;;;;;;4954450;28;20094;-67
2023/01/23 00:36:22;;;;;;;15.48;8.20;;;;;;;;;;4954489;28;20581;-67
2023/01/23 00:38:48;;;;;;;13.65;7.60;;;;;;;;;;4954642;28;20054;-68
2023/01/23 00:41:14;;;;;;;17.45;8.55;;;;;;;;;;4954652;28;20043;-68
2023/01/23 00:43:40;;;;;;;18.08;7.68;;;;;;;;;;4954201;28;20393;-67
2023/01/23 00:46:06;;;;;;;19.67;8.70;;;;;;;;;;4954297;28;20069;-67
2023/01/23 00:48:32;;;;;;;20.50;8.73;;;;;;;;;;4954368;28;20129;-67
2023/01/23 00:50:58;;;;;;;15.98;7.50;;;;;;;;;;4953768;28;20054;-67
2023/01/23 00:53:24;;;;;;;15.77;7.28;;;;;;;;;;4954037;28;20592;-67
2023/01/23 00:55:50;;;;;;;13.73;7.93;;;;;;;;;;4954242;28;20038;-67
2023/01/23 00:58:17;;;;;;;23.38;8.30;;;;;;;;;;4954122;28;20038;-67
2023/01/23 01:00:43;;;;;;;14.65;7.90;;;;;;;;;;4954242;28;20367;-67
2023/01/23 01:03:09;;;;;;;14.18;7.68;;;;;;;;;;4954038;28;20050;-67
2023/01/23 01:05:36;;;;;;;17.13;8.07;;;;;;;;;;4953825;28;20042;-67
2023/01/23 01:08:02;;;;;;;16.80;8.30;;;;;;;;;;4938431;28;20043;-67
2023/01/23 01:10:28;;;;;;;17.35;8.10;;;;;;;;;;4950834;29;20044;-67
2023/01/23 01:12:57;;;;;;;19.77;8.90;;;;;;;;;;4953622;28;20047;-67
2023/01/23 01:15:24;;;;;;;16.38;8.95;;;;;;;;;;4971463;28;20061;-67
2023/01/23 01:17:52;;;;;;;15.77;8.63;;;;;;;;;;4953933;28;20051;-68
2023/01/23 01:20:18;;;;;;;19.00;9.27;;;;;;;;;;4953634;28;20063;-68
2023/01/23 01:22:44;;;;;;;17.05;9.25;;;;;;;;;;4953746;28;20050;-68
2023/01/23 01:25:10;;;;;;;19.50;9.70;;;;;;;;;;4951982;28;20072;-67
2023/01/23 01:27:36;;;;;;;16.65;9.75;;;;;;;;;;4934492;29;20051;-67
2023/01/23 01:30:03;;;;;;;15.80;9.25;;;;;;;;;;4919222;29;20042;-67
2023/01/23 01:32:29;;;;;;;18.30;9.65;;;;;;;;;;4934719;29;20442;-67
2023/01/23 01:34:55;;;;;;;19.70;9.48;;;;;;;;;;4934686;29;20482;-67
2023/01/23 01:37:22;;;;;;;20.38;9.40;;;;;;;;;;4934872;29;20134;-67
2023/01/23 01:39:48;;;;;;;21.40;9.10;;;;;;;;;;4919090;29;20047;-67
2023/01/23 01:42:14;;;;;;;18.52;9.25;;;;;;;;;;4934246;29;20066;-67
2023/01/23 01:44:54;;;;;;;24.13;9.90;;;;;;;;;;4919028;29;20051;-67
2023/01/23 01:47:20;;;;;;;17.40;9.35;;;;;;;;;;4934564;29;20458;-67
2023/01/23 01:49:47;;;;;;;18.50;10.15;;;;;;;;;;4951650;29;20425;-67
2023/01/23 01:52:14;;;;;;;18.33;9.45;;;;;;;;;;4934770;29;20458;-67
2023/01/23 01:54:48;;;;;;;17.55;9.05;;;;;;;;;;4934528;29;20146;-67
2023/01/23 01:57:22;;;;;;;18.30;9.05;;;;;;;;;;4934370;29;20046;-67
2023/01/23 02:00:09;;;;;;;15.15;9.02;;;;;;;;;;4934913;29;20569;-68
2023/01/23 02:02:35;;;;;;;18.08;9.57;;;;;;;;;;4934472;29;20043;-68
2023/01/23 02:05:02;;;;;;;19.10;11.05;;;;;;;;;;4936329;29;20122;-67
2023/01/23 02:07:33;;;;;;;19.65;9.82;;;;;;;;;;4937972;29;20031;-67
2023/01/23 02:10:01;;;;;;;19.80;8.85;;;;;;;;;;4968289;28;20070;-67
2023/01/23 02:12:27;;;;;;;20.08;9.70;;;;;;;;;;4956675;28;20070;-67
2023/01/23 02:14:54;;;;;;;20.52;10.73;;;;;;;;;;4956903;28;20049;-67
2023/01/23 02:17:20;;;;;;;18.38;10.13;;;;;;;;;;4956854;28;20047;-67
2023/01/23 02:19:56;;;;;;;16.77;10.02;;;;;;;;;;4956299;28;20058;-67
2023/01/23 02:22:31;;;;;;;17.90;9.65;;;;;;;;;;4957012;28;20102;-67
2023/01/23 02:25:04;;;;;;;22.20;10.55;;;;;;;;;;4956464;28;20121;-67
2023/01/23 02:27:30;;;;;;;16.15;9.80;;;;;;;;;;4956614;28;20078;-67
2023/01/23 02:29:56;;;;;;;16.65;9.77;;;;;;;;;;4956687;28;20386;-67
2023/01/23 02:32:25;;;;;;;21.10;10.05;;;;;;;;;;4956464;28;20046;-67
2023/01/23 02:34:54;;;;;;;17.63;9.55;;;;;;;;;;4956424;28;20090;-67
2023/01/23 02:37:21;;;;;;;15.43;9.95;;;;;;;;;;4956808;28;20105;-67
2023/01/23 02:39:47;;;;;;;17.23;9.43;;;;;;;;;;4940411;28;20560;-67
2023/01/23 02:42:13;;;;;;;16.45;9.45;;;;;;;;;;4956677;28;20070;-67
2023/01/23 02:44:39;;;;;;;18.95;10.40;;;;;;;;;;4956329;28;20081;-67
2023/01/23 02:47:11;;;;;;;17.17;9.60;;;;;;;;;;4956468;28;20470;-67
2023/01/23 02:49:38;;;;;;;19.60;10.13;;;;;;;;;;4956181;28;20397;-67
2023/01/23 02:52:05;;;;;;;17.27;10.40;;;;;;;;;;4956517;28;20597;-67
2023/01/23 02:54:31;;;;;;;17.85;9.57;;;;;;;;;;4956194;28;20055;-67
2023/01/23 02:56:58;;;;;;;16.67;9.00;;;;;;;;;;4956393;28;20041;-67
2023/01/23 03:02:09;;;;;;;18.23;10.07;;;;;;;;;;4955734;28;20043;-67
2023/01/23 03:04:35;;;;;;;15.18;9.60;;;;;;;;;;4955869;28;20438;-67
2023/01/23 03:07:01;;;;;;;21.23;9.50;;;;;;;;;;4956128;28;20390;-67
2023/01/23 03:09:27;;;;;;;21.63;9.38;;;;;;;;;;4952260;29;20047;-67
2023/01/23 03:11:53;;;;;;;23.02;10.60;;;;;;;;;;4955900;28;20062;-67
2023/01/23 03:14:21;;;;;;;21.13;9.82;;;;;;;;;;4955702;28;20453;-68
2023/01/23 03:16:52;;;;;;;16.20;9.45;;;;;;;;;;4954993;28;20046;-68
2023/01/23 03:19:19;;;;;;;16.30;9.77;;;;;;;;;;4955431;28;20129;-67
2023/01/23 03:21:46;;;;;;;14.07;9.23;;;;;;;;;;4955753;28;20045;-67
2023/01/23 03:24:13;;;;;;;19.15;9.40;;;;;;;;;;4955000;28;20382;-67
2023/01/23 03:26:39;;;;;;;22.08;9.48;;;;;;;;;;4973426;28;20474;-67
2023/01/23 03:31:52;;;;;;;17.20;8.70;;;;;;;;;;4955621;28;20057;-67
2023/01/23 03:34:20;;;;;;;15.57;9.85;;;;;;;;;;4955307;28;20093;-67
2023/01/23 03:36:47;;;;;;;16.38;9.20;;;;;;;;;;4955747;28;20039;-67
2023/01/23 03:41:57;;;;;;;16.23;9.40;;;;;;;;;;4955429;28;20401;-67
2023/01/23 03:44:23;;;;;;;18.42;10.30;;;;;;;;;;4955348;28;20462;-67
2023/01/23 03:46:51;;;;;;;15.93;9.35;;;;;;;;;;4955070;28;20062;-67
2023/01/23 03:49:17;;;;;;;19.08;9.63;;;;;;;;;;4955116;28;20054;-67
2023/01/23 03:51:43;;;;;;;15.95;9.27;;;;;;;;;;4955452;28;20049;-67
2023/01/23 03:54:09;;;;;;;20.45;10.07;;;;;;;;;;4954866;28;20375;-67
2023/01/23 03:56:36;;;;;;;20.50;9.82;;;;;;;;;;4955416;28;20038;-67
2023/01/23 03:59:02;;;;;;;15.23;9.63;;;;;;;;;;4955040;28;20097;-67
2023/01/23 04:01:28;;;;;;;17.98;9.50;;;;;;;;;;4954731;28;20047;-67
2023/01/23 04:03:54;;;;;;;18.52;10.10;;;;;;;;;;4955184;28;20046;-67
2023/01/23 04:06:20;;;;;;;20.98;10.00;;;;;;;;;;4954930;28;20050;-67
2023/01/23 04:08:46;;;;;;;19.08;9.38;;;;;;;;;;4935400;28;20039;-67
2023/01/23 04:11:12;;;;;;;20.27;10.52;;;;;;;;;;4936013;29;20508;-67
2023/01/23 04:13:39;;;;;;;18.00;9.73;;;;;;;;;;4953029;28;20074;-67
2023/01/23 04:16:06;;;;;;;17.98;9.90;;;;;;;;;;4954423;28;20051;-67
2023/01/23 04:18:32;;;;;;;20.70;11.02;;;;;;;;;;4954959;28;20045;-67
2023/01/23 04:20:59;;;;;;;18.73;10.00;;;;;;;;;;4971984;28;20062;-68
2023/01/23 04:23:25;;;;;;;17.33;9.95;;;;;;;;;;4938310;28;20078;-68
2023/01/23 04:25:52;;;;;;;18.02;10.27;;;;;;;;;;4947006;29;20046;-68
2023/01/23 04:28:18;;;;;;;19.42;9.82;;;;;;;;;;4934461;29;20058;-67
2023/01/23 04:30:45;;;;;;;22.88;10.38;;;;;;;;;;4935556;29;20089;-67
2023/01/23 04:33:11;;;;;;;19.80;10.15;;;;;;;;;;4935352;29;20043;-67
2023/01/23 04:35:37;;;;;;;17.27;10.15;;;;;;;;;;4935704;29;20047;-67
2023/01/23 04:38:03;;;;;;;19.00;10.40;;;;;;;;;;4935427;29;20534;-67
2023/01/23 04:40:29;;;;;;;15.35;10.13;;;;;;;;;;4952468;29;20058;-67
2023/01/23 04:42:55;;;;;;;21.50;11.18;;;;;;;;;;4935230;29;20047;-67
2023/01/23 04:45:22;;;;;;;16.80;10.48;;;;;;;;;;4935512;29;20599;-68
2023/01/23 04:47:47;;;;;;;23.30;10.32;;;;;;;;;;4934710;29;20047;-68
2023/01/23 04:50:14;;;;;;;17.40;10.00;;;;;;;;;;4919598;29;20581;-68
2023/01/23 04:52:40;;;;;;;16.92;9.45;;;;;;;;;;4934981;29;20083;-68
2023/01/23 04:55:06;;;;;;;17.40;10.40;;;;;;;;;;4935166;29;20047;-68
2023/01/23 04:57:32;;;;;;;22.10;9.85;;;;;;;;;;4919231;29;20047;-68
2023/01/23 04:59:58;;;;;;;19.50;10.27;;;;;;;;;;4935499;29;20043;-68
2023/01/23 05:02:24;;;;;;;19.30;10.35;;;;;;;;;;4934870;29;20043;-68
2023/01/23 05:04:50;;;;;;;22.17;11.02;;;;;;;;;;4934962;29;20446;-68
2023/01/23 05:07:16;;;;;;;16.48;10.68;;;;;;;;;;4935553;29;20039;-68
2023/01/23 05:09:42;;;;;;;18.85;10.85;;;;;;;;;;4945072;28;20080;-68
2023/01/23 05:12:08;;;;;;;20.38;10.25;;;;;;;;;;4948907;29;20498;-68
2023/01/23 05:14:34;;;;;;;18.67;10.55;;;;;;;;;;4934734;29;20075;-68
2023/01/23 05:17:00;;;;;;;20.80;10.38;;;;;;;;;;4934937;29;20055;-68
2023/01/23 05:19:26;;;;;;;16.77;10.00;;;;;;;;;;4934652;29;20059;-68
2023/01/23 05:21:52;;;;;;;17.25;10.68;;;;;;;;;;4935151;29;20437;-68
2023/01/23 05:24:18;;;;;;;18.63;10.50;;;;;;;;;;4918686;29;20043;-68
2023/01/23 05:26:44;;;;;;;18.92;11.30;;;;;;;;;;4967098;28;20034;-68
2023/01/23 05:29:10;;;;;;;18.05;11.20;;;;;;;;;;4954013;28;20150;-68
2023/01/23 05:31:36;;;;;;;19.20;10.48;;;;;;;;;;4954040;28;20098;-68
2023/01/23 05:34:03;;;;;;;20.92;10.70;;;;;;;;;;4953698;28;20039;-68
2023/01/23 05:36:29;;;;;;;17.25;10.23;;;;;;;;;;4953974;28;20134;-68
2023/01/23 05:38:55;;;;;;;21.23;11.07;;;;;;;;;;4953974;28;20050;-68
2023/01/23 05:41:21;;;;;;;17.42;10.07;;;;;;;;;;4957650;28;20105;-68
2023/01/23 05:43:48;;;;;;;16.48;10.57;;;;;;;;;;4957525;28;20417;-68
2023/01/23 05:46:15;;;;;;;19.50;10.55;;;;;;;;;;4956987;28;20054;-68
2023/01/23 05:48:41;;;;;;;22.60;10.45;;;;;;;;;;4957226;28;20393;-68
2023/01/23 05:51:07;;;;;;;16.05;10.00;;;;;;;;;;4957645;28;20047;-68
2023/01/23 05:53:33;;;;;;;16.05;9.73;;;;;;;;;;4957174;28;20576;-68
2023/01/23 05:55:59;;;;;;;19.55;10.57;;;;;;;;;;4957483;28;20129;-68
2023/01/23 05:58:25;;;;;;;21.20;11.00;;;;;;;;;;4957253;28;20042;-68
2023/01/23 06:00:51;;;;;;;20.08;10.40;;;;;;;;;;4956716;28;20038;-68
2023/01/23 06:03:17;;;;;;;19.58;10.02;;;;;;;;;;4957512;28;20050;-68
2023/01/23 06:05:43;;;;;;;19.10;10.52;;;;;;;;;;4941220;28;20458;-67
2023/01/23 06:08:10;;;;;;;23.10;10.70;;;;;;;;;;4940925;28;20097;-67
2023/01/23 06:10:37;;;;;;;21.70;11.20;;;;;;;;;;4940925;28;20469;-67
2023/01/23 06:13:03;;;;;;;19.77;10.65;;;;;;;;;;4928096;29;20047;-68
2023/01/23 06:15:29;;;;;;;19.88;10.93;;;;;;;;;;4937420;29;20554;-68
2023/01/23 06:17:55;;;;;;;22.48;11.45;;;;;;;;;;4938380;29;20063;-68
2023/01/23 06:20:21;;;;;;;20.63;10.95;;;;;;;;;;4946337;29;20063;-67
2023/01/23 06:22:47;;;;;;;19.75;10.75;;;;;;;;;;4953621;29;20078;-67
2023/01/23 06:25:13;;;;;;;18.67;10.38;;;;;;;;;;4953732;29;20043;-67
2023/01/23 06:27:39;;;;;;;18.05;10.50;;;;;;;;;;4953991;29;20375;-67
2023/01/23 06:30:06;;;;;;;17.10;10.93;;;;;;;;;;4953614;29;20178;-67
2023/01/23 06:32:32;;;;;;;19.20;10.38;;;;;;;;;;4954088;29;20047;-67
2023/01/23 06:34:58;;;;;;;18.02;10.82;;;;;;;;;;4953800;29;20067;-67
2023/01/23 06:37:24;;;;;;;19.98;10.13;;;;;;;;;;4953787;29;20039;-67
2023/01/23 06:39:50;;;;;;;22.08;10.90;;;;;;;;;;4954003;29;20074;-67
2023/01/23 06:42:16;;;;;;;18.45;10.82;;;;;;;;;;4953821;29;20051;-67
2023/01/23 06:44:42;;;;;;;18.25;10.48;;;;;;;;;;4953332;29;20130;-67
2023/01/23 06:47:08;;;;;;;19.75;11.32;;;;;;;;;;4953817;29;20219;-67
2023/01/23 06:49:34;;;;;;;18.45;10.70;;;;;;;;;;4953597;29;20443;-67
2023/01/23 06:52:00;;;;;;;23.98;10.82;;;;;;;;;;4936441;29;20078;-67
2023/01/23 06:54:27;;;;;;;19.05;10.45;;;;;;;;;;4955020;28;20390;-68
2023/01/23 06:56:53;;;;;;;16.85;9.55;;;;;;;;;;4953358;29;20043;-68
2023/01/23 06:59:19;;;;;;;20.08;10.63;;;;;;;;;;4953323;29;20395;-68
2023/01/23 07:01:45;;;;;;;19.05;10.25;;;;;;;;;;4953295;29;20406;-67
2023/01/23 07:04:11;;;;;;;17.35;10.38;;;;;;;;;;4953616;29;20058;-67
2023/01/23 07:06:37;;;;;;;19.80;10.70;;;;;;;;;;4952884;29;20098;-67
2023/01/23 07:09:03;;;;;;;18.40;10.52;;;;;;;;;;4952060;29;20051;-69
2023/01/23 07:11:29;;;;;;;17.20;10.02;;;;;;;;;;4944551;29;20047;-66
2023/01/23 07:13:55;;;;;;;19.52;10.00;;;;;;;;;;4952660;29;20043;-66
2023/01/23 07:16:21;;;;;;;20.95;9.90;;;;;;;;;;4952826;29;20043;-66
2023/01/23 07:18:47;;;;;;;21.88;10.98;;;;;;;;;;4952946;29;20057;-66
2023/01/23 07:21:13;;;;;;;15.20;9.93;;;;;;;;;;4972174;28;20086;-66
2023/01/23 07:23:39;;;;;;;19.35;10.65;;;;;;;;;;4955940;28;20043;-66
2023/01/23 07:26:08;;;;;;;19.77;10.55;;;;;;;;;;4946405;29;20094;-67
2023/01/23 07:28:35;;;;;;;19.13;10.25;;;;;;;;;;4953333;29;20110;-66
2023/01/23 07:31:01;;;;;;;19.38;10.73;;;;;;;;;;4966955;28;20049;-67
2023/01/23 07:33:27;;;;;;;19.85;10.98;;;;;;;;;;4950570;28;20063;-66
2023/01/23 07:35:54;;;;;;;19.65;10.45;;;;;;;;;;4951516;28;20381;-66
2023/01/23 07:38:22;;;;;;;20.75;10.75;;;;;;;;;;4972004;28;20639;-66
2023/01/23 07:40:48;;;;;;;18.10;10.80;;;;;;;;;;4955097;28;20402;-65
2023/01/23 07:43:14;;;;;;;17.80;10.93;;;;;;;;;;4954789;28;20062;-67
2023/01/23 07:45:40;;;;;;;18.95;10.68;;;;;;;;;;4971928;28;20058;-66
2023/01/23 07:48:06;;;;;;;17.52;10.48;;;;;;;;;;4940809;28;20046;-67
2023/01/23 07:50:33;;;;;;;18.70;10.60;;;;;;;;;;4966879;28;20362;-65
2023/01/23 07:52:59;;;;;;;18.27;10.25;;;;;;;;;;4952827;28;20097;-66
2023/01/23 07:55:26;;;;;;;18.15;9.95;;;;;;;;;;4942866;28;20043;-66
2023/01/23 07:57:52;;;;;;;17.17;10.63;;;;;;;;;;4971933;28;20138;-66
2023/01/23 08:00:18;;;;;;;17.40;10.30;;;;;;;;;;4970883;28;20161;-67
2023/01/23 08:02:44;;;;;;;17.67;11.07;;;;;;;;;;4970894;28;20417;-67
2023/01/23 08:05:10;;;;;;;17.60;10.68;;;;;;;;;;4971012;28;20516;-67
2023/01/23 08:07:36;;;;;;;16.50;10.10;;;;;;;;;;4970826;28;20067;-68
2023/01/23 08:10:02;;;;;;;18.23;10.52;;;;;;;;;;4944166;28;20083;-67
2023/01/23 08:12:28;;;;;;;15.98;10.15;;;;;;;;;;4963175;28;20398;-67
2023/01/23 08:14:54;;;;;;;16.65;10.55;;;;;;;;;;4960498;28;20047;-68
2023/01/23 08:17:20;;;;;;;18.88;10.45;;;;;;;;;;4954328;28;20039;-67
2023/01/23 08:19:46;;;;;;;19.42;10.18;;;;;;;;;;4953726;28;20065;-68
2023/01/23 08:22:12;;;;;;;19.55;10.80;;;;;;;;;;4953022;28;20062;-69
2023/01/23 08:24:38;;;;;;;19.75;10.63;;;;;;;;;;4936313;29;20039;-68
2023/01/23 08:27:04;;;;;;;15.65;10.00;;;;;;;;;;4953816;28;20056;-68
2023/01/23 08:29:31;;;;;;;17.15;10.25;;;;;;;;;;4969703;28;20051;-68
2023/01/23 08:31:57;;;;;;;18.55;9.93;;;;;;;;;;4970728;28;20089;-67
2023/01/23 08:34:23;;;;;;;16.25;9.55;;;;;;;;;;4936216;28;20520;-67
2023/01/23 08:36:49;;;;;;;21.02;10.25;;;;;;;;;;4952656;28;20494;-67
2023/01/23 08:39:19;;;;;;;19.25;10.27;;;;;;;;;;4965611;28;20049;-66
2023/01/23 08:41:45;;;;;;;19.83;11.13;;;;;;;;;;4971033;28;20182;-66
2023/01/23 08:44:11;;;;;;;20.55;10.20;;;;;;;;;;4957867;28;20039;-68
2023/01/23 08:46:37;;;;;;;16.30;10.25;;;;;;;;;;4956965;28;20047;-68
2023/01/23 08:49:06;;;;;;;19.13;10.60;;;;;;;;;;4969952;28;20047;-69
2023/01/23 08:51:32;;;;;;;21.08;9.98;;;;;;;;;;4969902;28;20038;-68
2023/01/23 08:53:58;;;;;;;20.00;9.75;;;;;;;;;;4970277;28;20736;-67
2023/01/23 08:56:24;;;;;;;15.50;9.98;;;;;;;;;;4970316;28;20045;-69
2023/01/23 08:58:50;;;;;;;18.65;10.32;;;;;;;;;;4935895;28;20133;-66
2023/01/23 09:01:18;;;;;;;14.68;9.27;;;;;;;;;;4970961;28;20050;-66
2023/01/23 09:03:44;;;;;;;15.80;9.32;;;;;;;;;;4969703;28;20042;-68
2023/01/23 09:06:13;;;;;;;14.10;9.43;;;;;;;;;;4969456;28;20535;-70
2023/01/23 09:08:39;;;;;;;14.95;9.43;;;;;;;;;;4952411;28;20478;-65
2023/01/23 09:11:06;;;;;;;17.05;9.50;;;;;;;;;;4966811;28;20050;-65
2023/01/23 09:13:33;;;;;;;16.75;8.75;;;;;;;;;;4970034;28;20043;-67
2023/01/23 09:15:59;;;;;;;15.57;9.55;;;;;;;;;;4963241;28;20494;-67
2023/01/23 09:18:25;;;;;;;15.25;8.80;;;;;;;;;;4966856;28;20038;-66
2023/01/23 09:20:52;;;;;;;13.32;8.32;;;;;;;;;;4959814;28;20447;-67
2023/01/23 09:23:18;;;;;;;17.63;8.88;;;;;;;;;;4973958;28;20042;-66
2023/01/23 09:25:44;;;;;;;14.60;8.48;;;;;;;;;;4972470;28;20129;-66
2023/01/23 09:28:10;;;;;;;13.55;9.07;;;;;;;;;;4974145;28;20046;-66
2023/01/23 09:30:36;;;;;;;15.35;9.05;;;;;;;;;;4974328;28;20078;-67
2023/01/23 09:33:02;;;;;;;14.13;8.80;;;;;;;;;;4974179;28;20042;-66
2023/01/23 09:35:28;;;;;;;13.63;8.73;;;;;;;;;;4963979;28;20039;-68
2023/01/23 09:38:01;;;;;;;11.52;8.63;;;;;;;;;;4974369;28;20121;-69
2023/01/23 09:40:30;;;;;;;14.82;8.32;;;;;;;;;;4967682;28;20047;-68
2023/01/23 09:42:58;;;;;;;12.98;8.23;;;;;;;;;;4963189;28;20078;-67
2023/01/23 09:45:25;;;;;;;20.58;8.25;;;;;;;;;;4969992;28;20062;-67
2023/01/23 09:47:51;;;;;;;11.63;7.30;;;;;;;;;;4970382;28;20557;-67
2023/01/23 09:50:20;;;;;;;13.25;7.85;;;;;;;;;;4970296;28;20078;-67
2023/01/23 09:52:53;;;;;;;12.88;7.55;;;;;;;;;;4969615;28;20560;-67
2023/01/23 09:55:36;;;;;;;12.02;7.53;;;;;;;;;;4968572;28;20093;-68
2023/01/23 09:58:03;;;;;;;12.23;8.00;;;;;;;;;;4955301;28;20125;-68
2023/01/23 10:00:30;;;;;;;14.00;8.40;;;;;;;;;;4974009;28;20039;-68
2023/01/23 10:02:58;;;;;;;9.60;7.00;;;;;;;;;;4973105;28;20053;-66
2023/01/23 10:05:28;;;;;;;11.65;6.75;;;;;;;;;;4972954;28;20093;-66
2023/01/23 10:07:56;;;;;;;12.73;7.13;;;;;;;;;;4963638;28;20039;-66
2023/01/23 10:10:29;;;;;;;12.20;7.38;;;;;;;;;;4967096;28;20054;-66
2023/01/23 10:12:55;;;;;;;;;;;;;;;;;;4956652;28;20040;-66
2023/01/23 10:15:45;;;;;;;11.10;7.05;;;;;;;;;;4954081;28;19918;-66
2023/01/23 10:18:35;;;;;;;12.45;7.15;;;;;;;;;;4954243;28;20386;-67
2023/01/23 10:21:06;;;;;;;12.52;7.05;;;;;;;;;;4970505;28;20438;-67
2023/01/23 10:23:32;;;;;;;9.20;6.32;;;;;;;;;;4972979;28;20082;-65
2023/01/23 10:25:58;;;;;;;10.20;7.03;;;;;;;;;;4962613;28;20039;-67
2023/01/23 10:28:30;;;;;;;10.30;6.82;;;;;;;;;;4955633;28;20057;-68
2023/01/23 10:30:59;;;;;;;13.45;6.32;;;;;;;;;;4954483;28;20051;-67
2023/01/23 10:33:45;;;;;;;11.05;6.70;;;;;;;;;;4953781;28;20031;-66
2023/01/23 10:36:18;;;;;;;8.60;6.57;;;;;;;;;;4959035;28;20056;-66
2023/01/23 10:38:59;;;;;;;9.95;6.60;;;;;;;;;;4953333;28;20051;-68
2023/01/23 10:41:26;;;;;;;12.27;6.78;;;;;;;;;;4936902;29;20054;-66
2023/01/23 10:43:53;;;;;;;12.57;7.13;;;;;;;;;;4935998;29;20075;-68
2023/01/23 10:46:39;;;;;;;9.43;6.60;;;;;;;;;;4961452;28;20833;-66
2023/01/23 10:49:06;;;;;;;11.77;6.80;;;;;;;;;;4956091;28;20070;-68
2023/01/23 10:51:38;;;;;;;9.65;6.82;;;;;;;;;;4959635;28;20520;-68
2023/01/23 10:54:04;;;;;;;11.30;6.60;;;;;;;;;;4964507;28;20520;-66
2023/01/23 10:56:31;;;;;;;10.88;6.47;;;;;;;;;;4953204;28;20043;-69
2023/01/23 10:59:00;;;;;;;8.73;6.60;;;;;;;;;;4953300;28;20039;-68
2023/01/23 11:01:27;;;;;;;8.18;6.22;;;;;;;;;;4936771;29;20544;-64
2023/01/23 11:03:53;;;;;;;10.23;6.60;;;;;;;;;;4952331;28;20047;-65
2023/01/23 11:06:24;;;;;;;9.10;6.43;;;;;;;;;;4953727;28;20697;-64
2023/01/23 11:08:56;;;;;;;9.32;6.10;;;;;;;;;;4951739;28;20498;-64
2023/01/23 11:11:23;;;;;;;10.13;6.10;;;;;;;;;;4962366;28;20070;-64
2023/01/23 11:13:51;;;;;;;10.48;6.63;;;;;;;;;;4957590;28;20039;-63
2023/01/23 11:16:19;;;;;;;10.18;6.32;;;;;;;;;;4953043;28;20047;-64
2023/01/23 11:18:55;;;;;;;8.55;6.38;;;;;;;;;;4952929;28;20078;-64
2023/01/23 11:21:27;;;;;;;9.40;7.07;;;;;;;;;;4953200;28;20055;-65
2023/01/23 11:24:14;;;;;;;9.13;6.32;;;;;;;;;;4952408;28;20683;-65
2023/01/23 11:26:40;;;;;;;10.70;6.82;;;;;;;;;;4956499;28;20054;-63
2023/01/23 11:29:22;;;;;;;9.93;6.30;;;;;;;;;;4965943;28;20363;-64
2023/01/23 11:31:48;;;;;;;;;;;;;;;;;;4965017;28;20570;-64
2023/01/23 11:34:15;;;;;;;10.18;6.47;;;;;;;;;;4971503;28;19925;-64
2023/01/23 11:36:50;;;;;;;8.60;6.75;;;;;;;;;;4971613;28;20035;-64
2023/01/23 11:39:19;;;;;;;8.32;6.28;;;;;;;;;;4964674;28;20085;-64
2023/01/23 11:41:46;;;;;;;11.65;6.43;;;;;;;;;;4953918;28;20051;-65
2023/01/23 11:44:21;;;;;;;9.75;6.65;;;;;;;;;;4959719;28;20122;-65
2023/01/23 11:46:56;;;;;;;9.13;6.53;;;;;;;;;;4971806;28;20046;-64
2023/01/23 11:49:30;;;;;;;8.68;6.78;;;;;;;;;;4970328;28;20031;-64
2023/01/23 11:51:56;;;;;;;8.75;6.95;;;;;;;;;;4948438;29;20069;-65
2023/01/23 11:54:22;;;;;;;11.55;6.90;;;;;;;;;;4918271;29;20039;-65
2023/01/23 11:57:01;;;;;;;12.75;6.95;;;;;;;;;;4969867;28;20039;-66
2023/01/23 11:59:43;;;;;;;8.75;6.72;;;;;;;;;;4963208;28;20046;-64
2023/01/23 12:02:12;;;;;;;9.23;6.67;;;;;;;;;;4960883;28;20043;-65
2023/01/23 12:04:47;;;;;;;9.63;6.60;;;;;;;;;;4963772;28;20050;-66
2023/01/23 12:07:19;;;;;;;12.32;6.82;;;;;;;;;;4950372;28;20090;-66
2023/01/23 12:10:00;;;;;;;11.30;7.38;;;;;;;;;;4960996;28;20043;-64
2023/01/23 12:12:26;;;;;;;10.48;6.90;;;;;;;;;;4964790;28;20039;-64
2023/01/23 12:15:01;;;;;;;10.27;7.18;;;;;;;;;;4961184;28;20046;-66
2023/01/23 12:17:32;;;;;;;11.10;7.32;;;;;;;;;;4961606;28;20146;-66
2023/01/23 12:20:20;;;;;;;10.98;7.38;;;;;;;;;;4958959;28;20074;-64
2023/01/23 12:22:55;;;;;;;12.32;7.70;;;;;;;;;;4955993;28;20464;-65
2023/01/23 12:25:25;;;;;;;10.95;7.07;;;;;;;;;;4962999;28;20507;-65
2023/01/23 12:27:58;;;;;;;9.80;6.68;;;;;;;;;;4965641;28;20439;-65
2023/01/23 12:30:41;;;;;;;11.45;7.40;;;;;;;;;;4971405;28;20042;-65
2023/01/23 12:33:26;;;;;;;11.60;7.45;;;;;;;;;;4970854;28;20421;-64
2023/01/23 12:35:58;;;;;;;14.88;8.35;;;;;;;;;;4969853;28;20037;-64
2023/01/23 12:38:30;;;;;;;12.93;8.23;;;;;;;;;;4970641;28;20093;-64
2023/01/23 12:41:07;;;;;;;11.73;7.75;;;;;;;;;;4970240;28;20046;-64
2023/01/23 12:43:47;;;;;;;13.15;7.60;;;;;;;;;;4971302;28;20462;-65
2023/01/23 12:46:15;;;;;;;9.60;7.57;;;;;;;;;;4954316;28;20046;-64
2023/01/23 12:48:44;;;;;;;11.50;7.32;;;;;;;;;;4970122;28;20097;-65
2023/01/23 12:51:20;;;;;;;13.65;8.75;;;;;;;;;;4971190;28;20130;-65
2023/01/23 12:53:49;;;;;;;12.60;7.47;;;;;;;;;;4963702;28;20062;-65
2023/01/23 12:56:33;;;;;;;11.85;7.95;;;;;;;;;;4961596;28;20674;-65
2023/01/23 12:59:07;;;;;;;12.15;7.80;;;;;;;;;;4951443;28;20039;-65
2023/01/23 13:01:42;;;;;;;12.98;8.15;;;;;;;;;;4957449;28;20039;-68
2023/01/23 13:04:13;;;;;;;12.35;8.10;;;;;;;;;;4968300;28;20097;-68
2023/01/23 13:06:39;;;;;;;14.50;9.27;;;;;;;;;;4953351;28;20047;-70
2023/01/23 13:09:20;;;;;;;13.40;7.85;;;;;;;;;;4964993;28;20039;-68
2023/01/23 13:11:46;;;;;;;11.48;7.93;;;;;;;;;;4950880;28;20542;-67
2023/01/23 13:14:18;;;;;;;14.35;8.93;;;;;;;;;;4970753;28;20043;-67
2023/01/23 13:16:44;;;;;;;;;;;;;;;;;;4970755;28;20787;-65
2023/01/23 13:22:23;;;;;;;11.85;7.80;;;;;;;;;;4946532;28;20054;-67
2023/01/23 13:25:08;;;;;;;13.02;8.82;;;;;;;;;;4947354;28;20094;-68
2023/01/23 13:27:41;;;;;;;12.10;8.55;;;;;;;;;;4952067;28;20049;-68
2023/01/23 13:30:07;;;;;;;;;;;;;;;;;;4938199;29;20048;-68
2023/01/23 13:32:33;;;;;;;14.48;9.00;;;;;;;;;;4960846;28;20001;-68
2023/01/23 13:35:00;;;;;;;15.35;10.10;;;;;;;;;;4970967;28;20118;-65
2023/01/23 13:37:38;;;;;;;14.38;9.52;;;;;;;;;;4959598;28;20049;-69
2023/01/23 13:40:11;;;;;;;17.65;9.27;;;;;;;;;;4958927;28;20046;-68
2023/01/23 13:42:37;;;;;;;15.05;9.27;;;;;;;;;;4936269;29;20043;-67
2023/01/23 13:45:18;;;;;;;17.08;9.70;;;;;;;;;;4941968;29;20043;-68
2023/01/23 13:50:38;;;;;;;14.73;9.40;;;;;;;;;;4952338;28;20525;-68
2023/01/23 13:59:10;;;;;;;15.77;10.23;;;;;;;;;;4970150;28;20405;-66
2023/01/23 14:07:49;;;;;;;16.50;10.65;;;;;;;;;;4949567;28;20125;-66
2023/01/23 14:10:26;;;;;;;17.33;10.50;;;;;;;;;;4947333;28;20110;-65
2023/01/23 14:13:02;;;;;;;18.38;11.15;;;;;;;;;;4943983;28;20038;-66
2023/01/23 14:18:34;;;;;;;14.93;9.88;;;;;;;;;;4954381;28;20133;-66
2023/01/23 14:21:01;;;;;;;15.20;9.93;;;;;;;;;;4972784;28;20047;-67
2023/01/23 14:23:38;;;;;;;18.08;10.48;;;;;;;;;;4952269;29;20043;-66
2023/01/23 14:26:05;;;;;;;13.82;9.52;;;;;;;;;;4945115;28;20393;-68
2023/01/23 14:28:31;;;;;;;17.30;10.82;;;;;;;;;;4951810;28;20083;-66
2023/01/23 14:30:59;;;;;;;16.25;10.40;;;;;;;;;;4969873;28;20038;-66
2023/01/23 14:33:25;;;;;;;16.25;10.68;;;;;;;;;;4967927;28;20074;-65
2023/01/23 14:35:52;;;;;;;19.80;10.98;;;;;;;;;;4967707;28;20031;-65
2023/01/23 14:38:25;;;;;;;19.02;10.40;;;;;;;;;;4968491;28;20043;-66
2023/01/23 14:40:51;;;;;;;17.58;10.88;;;;;;;;;;4962086;28;20117;-67
2023/01/23 14:43:19;;;;;;;15.95;9.70;;;;;;;;;;4953803;28;20043;-66
2023/01/23 14:45:47;;;;;;;15.38;9.82;;;;;;;;;;4924610;28;20039;-65
2023/01/23 14:48:15;;;;;;;17.50;9.93;;;;;;;;;;4966682;28;20080;-68
2023/01/23 14:50:41;;;;;;;14.00;9.63;;;;;;;;;;4951770;29;20059;-70
2023/01/23 14:53:12;;;;;;;18.92;10.82;;;;;;;;;;4939425;29;20070;-67
2023/01/23 14:55:40;;;;;;;16.55;10.38;;;;;;;;;;4936492;29;20047;-68
2023/01/23 14:58:06;;;;;;;15.30;9.88;;;;;;;;;;4947184;28;20126;-68
2023/01/23 15:00:33;;;;;;;15.45;10.40;;;;;;;;;;4943005;29;20051;-67
2023/01/23 15:02:59;;;;;;;15.90;9.70;;;;;;;;;;4936577;29;20106;-69